createdAt,value
2023-01-08T00:01:07.269Z,99.67
2023-01-08T00:03:36.400Z,99.73
2023-01-08T00:06:06.096Z,98.99
2023-01-08T00:08:33.658Z,98.76
2023-01-08T00:11:00.882Z,98.20
2023-01-08T00:13:28.356Z,97.82
2023-01-08T00:15:55.308Z,97.77
2023-01-08T00:18:22.428Z,97.09
2023-01-08T00:20:49.613Z,96.83
2023-01-08T00:23:18.525Z,96.22
2023-01-08T00:25:46.035Z,95.81
2023-01-08T00:28:15.226Z,95.54
2023-01-08T00:30:42.681Z,95.25
2023-01-08T00:33:10.883Z,94.59
2023-01-08T00:35:41.357Z,94.67
2023-01-08T00:38:08.341Z,94.33
2023-01-08T00:40:36.091Z,94.04
2023-01-08T00:43:03.958Z,93.39
2023-01-08T00:45:31.162Z,93.95
2023-01-08T00:47:58.523Z,93.17
2023-01-08T00:50:26.143Z,92.85
2023-01-08T00:52:53.185Z,93.08
2023-01-08T00:55:20.421Z,93.36
2023-01-08T00:57:47.323Z,92.48
2023-01-08T01:00:16.073Z,92.84
2023-01-08T01:02:43.961Z,92.52
2023-01-08T01:05:15.543Z,92.73
2023-01-08T01:07:43.219Z,93.02
2023-01-08T01:10:11.825Z,93.21
2023-01-08T01:12:39.551Z,93.46
2023-01-08T01:15:12.808Z,94.01
2023-01-08T01:17:41.565Z,94.40
2023-01-08T01:20:11.325Z,94.77
2023-01-08T01:22:39.176Z,94.35
2023-01-08T01:25:07.223Z,94.61
2023-01-08T01:27:34.159Z,95.12
2023-01-08T01:30:01.208Z,95.43
2023-01-08T01:32:28.157Z,96.10
2023-01-08T01:34:55.082Z,96.06
2023-01-08T01:37:22.009Z,95.94
2023-01-08T01:39:48.980Z,96.23
2023-01-08T01:42:37.183Z,96.44
2023-01-08T01:45:17.798Z,96.67
2023-01-08T01:47:50.034Z,96.66
2023-01-08T01:50:27.806Z,96.63
2023-01-08T01:53:04.814Z,95.89
2023-01-08T01:55:32.960Z,96.31
2023-01-08T01:58:13.715Z,96.34
2023-01-08T02:00:41.812Z,97.02
2023-01-08T02:03:11.488Z,96.05
2023-01-08T02:05:55.386Z,96.26
2023-01-08T02:09:13.284Z,96.10
2023-01-08T02:12:27.604Z,96.64
2023-01-08T02:15:41.882Z,96.69
2023-01-08T02:18:46.112Z,97.27
2023-01-08T02:22:07.481Z,96.65
2023-01-08T02:25:19.658Z,97.73
2023-01-08T02:28:06.275Z,98.33
2023-01-08T02:30:33.273Z,97.75
2023-01-08T02:33:00.197Z,99.20
2023-01-08T02:35:41.337Z,98.65
2023-01-08T02:38:13.532Z,98.73
2023-01-08T02:40:54.597Z,99.08
2023-01-08T02:43:32.553Z,98.10
2023-01-08T02:46:02.651Z,98.16
2023-01-08T02:48:40.496Z,98.29
2023-01-08T02:51:31.365Z,97.58
2023-01-08T02:54:02.575Z,98.14
2023-01-08T02:56:36.948Z,97.61
2023-01-08T02:59:07.654Z,98.00
2023-01-08T03:01:35.716Z,98.02
2023-01-08T03:04:08.450Z,97.48
2023-01-08T03:06:35.606Z,97.53
2023-01-08T03:09:02.685Z,97.84
2023-01-08T03:11:41.769Z,97.71
2023-01-08T03:14:30.708Z,98.02
2023-01-08T03:17:05.742Z,98.87
2023-01-08T03:19:42.359Z,99.65
2023-01-08T03:22:16.136Z,99.40
2023-01-08T03:24:47.046Z,99.06
2023-01-08T03:27:19.288Z,99.44
2023-01-08T03:29:49.639Z,100.00
2023-01-08T03:32:19.166Z,98.87
2023-01-08T03:34:48.922Z,98.50
2023-01-08T03:37:20.712Z,98.86
2023-01-08T03:40:04.722Z,98.07
2023-01-08T03:42:32.840Z,98.63
2023-01-08T03:45:03.474Z,99.28
2023-01-08T03:47:32.567Z,99.29
2023-01-08T03:50:03.510Z,99.69
2023-01-08T03:52:33.396Z,99.81
2023-01-08T03:55:00.398Z,100.00
2023-01-08T03:57:27.504Z,100.00
2023-01-08T03:59:54.423Z,100.00
2023-01-08T04:02:21.540Z,99.02
2023-01-08T04:04:48.865Z,97.72
2023-01-08T04:07:15.911Z,97.95
2023-01-08T04:09:42.869Z,97.23
2023-01-08T04:12:09.734Z,96.68
2023-01-08T04:14:36.606Z,97.77
2023-01-08T04:17:03.575Z,98.77
2023-01-08T04:19:30.482Z,99.30
2023-01-08T04:21:57.473Z,99.36
2023-01-08T04:24:24.741Z,99.89
2023-01-08T04:26:51.695Z,100.00
2023-01-08T04:29:18.626Z,99.98
2023-01-08T04:31:45.554Z,100.00
2023-01-08T04:34:12.528Z,100.00
2023-01-08T04:36:39.457Z,100.00
2023-01-08T04:39:07.761Z,100.00
2023-01-08T04:41:34.716Z,99.84
2023-01-08T04:44:04.969Z,99.09
2023-01-08T04:46:32.014Z,98.10
2023-01-08T04:48:58.957Z,98.03
2023-01-08T04:51:26.678Z,98.56
2023-01-08T04:53:53.643Z,98.87
2023-01-08T04:56:20.580Z,99.60
2023-01-08T04:58:47.623Z,99.43
2023-01-08T05:01:26.210Z,100.00
2023-01-08T05:03:55.345Z,100.00
2023-01-08T05:06:22.422Z,100.00
2023-01-08T05:08:49.491Z,100.00
2023-01-08T05:11:16.666Z,100.00
2023-01-08T05:13:43.934Z,100.00
2023-01-08T05:16:10.994Z,100.00
2023-01-08T05:18:37.933Z,100.00
2023-01-08T05:21:05.715Z,100.00
2023-01-08T05:23:33.853Z,100.00
2023-01-08T05:26:02.481Z,100.00
2023-01-08T05:28:30.709Z,100.00
2023-01-08T05:30:58.455Z,100.00
2023-01-08T05:33:26.407Z,100.00
2023-01-08T05:35:53.437Z,100.00
2023-01-08T05:38:20.374Z,100.00
2023-01-08T05:40:47.412Z,100.00
2023-01-08T05:43:14.419Z,99.95
2023-01-08T05:45:41.331Z,100.00
2023-01-08T05:48:08.561Z,100.00
2023-01-08T05:50:36.133Z,100.00
2023-01-08T05:53:06.805Z,100.00
2023-01-08T05:55:34.149Z,100.00
2023-01-08T05:58:04.902Z,100.00
2023-01-08T06:00:33.525Z,100.00
2023-01-08T06:03:00.606Z,100.00
2023-01-08T06:05:27.826Z,100.00
2023-01-08T06:07:54.780Z,100.00
2023-01-08T06:10:22.012Z,100.00
2023-01-08T06:12:48.891Z,100.00
2023-01-08T06:15:16.104Z,100.00
2023-01-08T06:17:43.269Z,100.00
2023-01-08T06:20:10.934Z,100.00
2023-01-08T06:22:38.204Z,100.00
2023-01-08T06:25:05.588Z,100.00
2023-01-08T06:27:32.490Z,100.00
2023-01-08T06:29:59.405Z,100.00
2023-01-08T06:32:26.323Z,100.00
2023-01-08T06:34:53.264Z,100.00
2023-01-08T06:37:20.206Z,100.00
2023-01-08T06:39:47.121Z,100.00
2023-01-08T06:42:14.019Z,100.00
2023-01-08T06:44:40.985Z,100.00
2023-01-08T06:47:07.959Z,100.00
2023-01-08T06:49:34.855Z,100.00
2023-01-08T06:52:01.796Z,100.00
2023-01-08T06:54:28.798Z,100.00
2023-01-08T06:56:55.743Z,100.00
2023-01-08T06:59:22.696Z,100.00
2023-01-08T07:01:50.145Z,100.00
2023-01-08T07:04:18.270Z,100.00
2023-01-08T07:06:45.469Z,100.00
2023-01-08T07:09:13.703Z,100.00
2023-01-08T07:11:43.941Z,100.00
2023-01-08T07:14:11.141Z,100.00
2023-01-08T07:16:38.191Z,100.00
2023-01-08T07:19:05.381Z,100.00
2023-01-08T07:21:32.345Z,99.82
2023-01-08T07:23:59.830Z,100.00
2023-01-08T07:26:26.887Z,100.00
2023-01-08T07:28:54.057Z,100.00
2023-01-08T07:31:21.132Z,100.00
2023-01-08T07:33:48.165Z,100.00
2023-01-08T07:36:15.955Z,100.00
2023-01-08T07:38:43.537Z,100.00
2023-01-08T07:41:10.724Z,99.85
2023-01-08T07:43:37.625Z,99.26
2023-01-08T07:46:04.953Z,99.53
2023-01-08T07:48:32.606Z,99.75
2023-01-08T07:51:03.955Z,100.00
2023-01-08T07:53:30.961Z,100.00
2023-01-08T07:56:05.490Z,100.00
2023-01-08T07:58:32.484Z,100.00
2023-01-08T08:00:59.640Z,100.00
2023-01-08T08:03:27.243Z,100.00
2023-01-08T08:05:54.406Z,99.97
2023-01-08T08:08:21.387Z,100.00
2023-01-08T08:10:48.390Z,99.57
2023-01-08T08:13:15.328Z,99.95
2023-01-08T08:15:42.402Z,99.51
2023-01-08T08:18:10.996Z,99.05
2023-01-08T08:20:38.492Z,99.33
2023-01-08T08:23:10.980Z,98.88
2023-01-08T08:25:37.931Z,99.45
2023-01-08T08:28:05.710Z,98.48
2023-01-08T08:30:35.279Z,98.27
2023-01-08T08:33:04.227Z,99.33
2023-01-08T08:35:32.102Z,98.49
2023-01-08T08:37:59.879Z,98.20
2023-01-08T08:40:27.530Z,97.78
2023-01-08T08:43:02.912Z,96.71
2023-01-08T08:45:30.398Z,96.89
2023-01-08T08:47:57.529Z,95.75
2023-01-08T08:50:24.936Z,94.21
2023-01-08T08:52:52.007Z,94.20
2023-01-08T08:55:19.066Z,92.30
2023-01-08T08:57:47.198Z,91.37
2023-01-08T09:00:14.775Z,92.03
2023-01-08T09:02:41.947Z,91.49
2023-01-08T09:05:09.051Z,92.50
2023-01-08T09:07:37.156Z,93.28
2023-01-08T09:10:04.706Z,92.92
2023-01-08T09:12:31.647Z,93.46
2023-01-08T09:14:58.851Z,93.51
2023-01-08T09:17:26.176Z,93.89
2023-01-08T09:19:53.496Z,93.09
2023-01-08T09:22:21.210Z,94.21
2023-01-08T09:24:48.169Z,93.13
2023-01-08T09:27:15.598Z,93.38
2023-01-08T09:29:42.588Z,93.58
2023-01-08T09:32:09.970Z,93.60
2023-01-08T09:34:37.120Z,93.81
2023-01-08T09:37:05.352Z,93.91
2023-01-08T09:39:33.222Z,93.98
2023-01-08T09:42:04.672Z,95.02
2023-01-08T09:44:39.238Z,94.54
2023-01-08T09:47:19.517Z,94.83
2023-01-08T09:49:48.184Z,95.73
2023-01-08T09:52:16.304Z,93.80
2023-01-08T09:54:43.295Z,95.04
2023-01-08T09:57:20.674Z,95.44
2023-01-08T09:59:49.797Z,95.03
2023-01-08T10:02:24.581Z,94.97
2023-01-08T10:05:00.447Z,95.02
2023-01-08T10:07:30.662Z,94.25
2023-01-08T10:09:57.695Z,92.43
2023-01-08T10:12:32.726Z,92.23
2023-01-08T10:15:03.638Z,91.24
2023-01-08T10:17:41.195Z,89.84
2023-01-08T10:20:22.705Z,87.04
2023-01-08T10:22:50.484Z,87.09
2023-01-08T10:25:22.087Z,85.07
2023-01-08T10:27:55.435Z,85.02
2023-01-08T10:30:29.608Z,83.37
2023-01-08T10:32:59.010Z,82.86
2023-01-08T10:35:34.693Z,82.75
2023-01-08T10:38:02.462Z,82.59
2023-01-08T10:40:45.867Z,81.70
2023-01-08T10:43:17.665Z,81.96
2023-01-08T10:45:57.273Z,81.20
2023-01-08T10:48:30.379Z,80.63
2023-01-08T10:51:13.620Z,80.07
2023-01-08T10:53:41.731Z,80.74
2023-01-08T10:56:20.764Z,79.59
2023-01-08T10:58:48.553Z,79.48
2023-01-08T11:01:24.090Z,79.25
2023-01-08T11:03:54.269Z,79.81
2023-01-08T11:06:33.108Z,80.24
2023-01-08T11:09:03.201Z,79.63
2023-01-08T11:11:35.871Z,78.32
2023-01-08T11:14:06.733Z,79.87
2023-01-08T11:16:43.643Z,79.83
2023-01-08T11:19:19.855Z,80.28
2023-01-08T11:22:01.772Z,80.39
2023-01-08T11:24:32.616Z,80.03
2023-01-08T11:27:10.936Z,81.19
2023-01-08T11:29:45.909Z,80.77
2023-01-08T11:32:15.876Z,79.06
2023-01-08T11:34:56.125Z,78.55
2023-01-08T11:37:39.554Z,78.62
2023-01-08T11:40:18.644Z,77.90
2023-01-08T11:43:01.741Z,77.67
2023-01-08T11:45:40.774Z,77.46
2023-01-08T11:48:45.379Z,77.33
2023-01-08T11:51:43.284Z,75.12
2023-01-08T11:54:36.829Z,76.96
2023-01-08T11:57:54.895Z,76.46
2023-01-08T12:01:11.293Z,73.71
2023-01-08T12:03:47.423Z,74.86
2023-01-08T12:06:17.125Z,74.74
2023-01-08T12:09:09.525Z,74.80
2023-01-08T12:11:43.489Z,75.22
2023-01-08T12:14:38.247Z,74.50
2023-01-08T12:17:27.645Z,74.36
2023-01-08T12:20:12.064Z,73.03
2023-01-08T12:22:50.598Z,74.41
2023-01-08T12:25:35.957Z,73.30
2023-01-08T12:28:22.850Z,72.46
2023-01-08T12:31:07.025Z,72.71
2023-01-08T12:33:54.478Z,73.52
2023-01-08T12:36:28.994Z,71.72
2023-01-08T12:39:03.148Z,70.21
2023-01-08T12:41:35.158Z,72.28
2023-01-08T12:44:10.462Z,71.87
2023-01-08T12:46:39.691Z,72.16
2023-01-08T12:49:08.481Z,72.45
2023-01-08T12:51:40.305Z,71.93
2023-01-08T12:54:13.425Z,71.23
2023-01-08T12:56:49.101Z,71.72
2023-01-08T12:59:36.226Z,73.09
2023-01-08T13:02:11.058Z,72.38
2023-01-08T13:04:47.002Z,75.18
2023-01-08T13:07:21.614Z,78.29
2023-01-08T13:10:03.538Z,77.72
2023-01-08T13:12:41.440Z,79.14
2023-01-08T13:15:09.106Z,79.33
2023-01-08T13:17:38.249Z,78.94
2023-01-08T13:20:07.511Z,78.68
2023-01-08T13:22:37.199Z,78.17
2023-01-08T13:25:17.256Z,79.21
2023-01-08T13:27:45.727Z,77.52
2023-01-08T13:30:31.840Z,77.11
2023-01-08T13:32:59.255Z,77.51
2023-01-08T13:35:29.888Z,78.57
2023-01-08T13:38:11.902Z,77.69
2023-01-08T13:40:44.748Z,77.88
2023-01-08T13:43:36.883Z,77.85
2023-01-08T13:46:03.804Z,77.71
2023-01-08T13:48:36.492Z,77.93
2023-01-08T13:51:04.321Z,77.37
2023-01-08T13:53:32.546Z,77.22
2023-01-08T13:56:02.752Z,76.71
2023-01-08T13:58:36.292Z,77.69
2023-01-08T14:01:05.205Z,77.16
2023-01-08T14:03:44.815Z,77.34
2023-01-08T14:06:26.191Z,77.57
2023-01-08T14:09:00.503Z,77.46
2023-01-08T14:11:46.036Z,78.25
2023-01-08T14:14:18.207Z,81.20
2023-01-08T14:16:47.621Z,81.65
2023-01-08T14:19:23.104Z,81.42
2023-01-08T14:21:52.827Z,81.51
2023-01-08T14:24:22.645Z,81.23
2023-01-08T14:27:00.481Z,81.76
2023-01-08T14:29:31.004Z,81.54
2023-01-08T14:32:01.443Z,81.79
2023-01-08T14:34:53.800Z,81.90
2023-01-08T14:37:20.963Z,82.44
2023-01-08T14:39:55.055Z,82.52
2023-01-08T14:42:44.559Z,82.78
2023-01-08T14:45:11.557Z,83.38
2023-01-08T14:47:45.935Z,85.11
2023-01-08T14:50:27.790Z,86.22
2023-01-08T14:53:17.904Z,87.25
2023-01-08T14:55:49.225Z,88.02
2023-01-08T14:58:21.015Z,88.74
2023-01-08T15:00:54.217Z,89.04
2023-01-08T15:03:32.354Z,90.30
2023-01-08T15:05:59.926Z,90.87
2023-01-08T15:08:38.654Z,91.13
2023-01-08T15:11:15.738Z,92.07
2023-01-08T15:13:42.679Z,92.67
2023-01-08T15:16:16.641Z,92.21
2023-01-08T15:18:50.285Z,92.25
2023-01-08T15:21:20.034Z,91.30
2023-01-08T15:23:50.398Z,92.35
2023-01-08T15:26:18.110Z,92.72
2023-01-08T15:29:06.912Z,93.40
2023-01-08T15:31:39.616Z,95.64
2023-01-08T15:34:08.961Z,93.55
2023-01-08T15:36:35.949Z,94.86
2023-01-08T15:39:03.713Z,95.20
2023-01-08T15:41:59.157Z,95.56
2023-01-08T15:44:26.249Z,94.74
2023-01-08T15:46:53.518Z,94.05
2023-01-08T15:49:20.622Z,93.75
2023-01-08T15:51:49.856Z,94.06
2023-01-08T15:54:17.227Z,95.98
2023-01-08T15:56:44.272Z,94.83
2023-01-08T15:59:12.103Z,95.72
2023-01-08T16:01:39.315Z,94.48
2023-01-08T16:04:06.684Z,94.78
2023-01-08T16:06:33.895Z,94.67
2023-01-08T16:09:01.657Z,94.77
2023-01-08T16:11:28.650Z,94.76
2023-01-08T16:13:55.750Z,97.26
2023-01-08T16:16:22.729Z,96.44
2023-01-08T16:18:49.706Z,96.86
2023-01-08T16:21:18.269Z,96.14
2023-01-08T16:23:45.138Z,97.08
2023-01-08T16:26:17.383Z,96.66
2023-01-08T16:28:44.742Z,96.01
2023-01-08T16:31:11.757Z,97.08
2023-01-08T16:33:39.019Z,98.91
2023-01-08T16:36:08.450Z,99.81
2023-01-08T16:38:36.256Z,98.92
2023-01-08T16:41:04.437Z,99.61
2023-01-08T16:43:39.897Z,100.00
2023-01-08T16:46:18.259Z,100.00
2023-01-08T16:48:46.997Z,99.92
2023-01-08T16:51:14.364Z,99.04
2023-01-08T16:53:41.806Z,99.28
2023-01-08T16:56:09.875Z,99.55
2023-01-08T16:58:37.485Z,98.73
2023-01-08T17:01:10.787Z,98.20
2023-01-08T17:03:39.014Z,98.87
2023-01-08T17:06:10.770Z,98.28
2023-01-08T17:08:40.431Z,97.85
2023-01-08T17:11:12.670Z,99.05
2023-01-08T17:13:40.098Z,98.85
2023-01-08T17:16:15.722Z,99.33
2023-01-08T17:18:42.918Z,98.43
2023-01-08T17:21:11.880Z,96.73
2023-01-08T17:23:39.786Z,95.95
2023-01-08T17:26:14.054Z,96.22
2023-01-08T17:28:41.146Z,96.84
2023-01-08T17:31:13.445Z,96.63
2023-01-08T17:33:40.498Z,97.48
2023-01-08T17:36:16.931Z,97.88
2023-01-08T17:38:44.016Z,96.48
2023-01-08T17:41:11.205Z,97.65
2023-01-08T17:43:39.426Z,96.89
2023-01-08T17:46:07.594Z,98.08
2023-01-08T17:48:34.898Z,97.71
2023-01-08T17:51:07.949Z,97.40
2023-01-08T17:53:36.238Z,97.43
2023-01-08T17:56:05.897Z,97.51
2023-01-08T17:58:33.199Z,97.02
2023-01-08T18:01:00.226Z,97.60
2023-01-08T18:03:27.167Z,98.08
2023-01-08T18:05:54.063Z,97.44
2023-01-08T18:08:20.982Z,97.53
2023-01-08T18:10:48.853Z,96.85
2023-01-08T18:13:15.733Z,96.93
2023-01-08T18:15:42.649Z,98.19
2023-01-08T18:18:09.548Z,98.03
2023-01-08T18:20:39.421Z,96.58
2023-01-08T18:23:06.433Z,97.07
2023-01-08T18:25:33.339Z,97.12
2023-01-08T18:28:00.648Z,96.85
2023-01-08T18:30:29.247Z,96.42
2023-01-08T18:32:58.907Z,96.59
2023-01-08T18:35:25.810Z,96.11
2023-01-08T18:37:52.698Z,95.37
2023-01-08T18:40:19.767Z,95.90
2023-01-08T18:42:48.171Z,95.75
2023-01-08T18:45:15.419Z,95.46
2023-01-08T18:47:42.878Z,95.73
2023-01-08T18:50:10.855Z,94.68
2023-01-08T18:52:39.794Z,95.59
2023-01-08T18:55:06.996Z,94.68
2023-01-08T18:57:33.861Z,94.69
2023-01-08T19:00:00.844Z,95.17
2023-01-08T19:02:28.116Z,94.29
2023-01-08T19:04:55.080Z,94.83
2023-01-08T19:07:22.050Z,94.46
2023-01-08T19:09:49.049Z,95.76
2023-01-08T19:12:15.963Z,96.85
2023-01-08T19:14:42.996Z,97.72
2023-01-08T19:17:09.937Z,97.30
2023-01-08T19:19:36.955Z,97.36
2023-01-08T19:22:03.873Z,97.04
2023-01-08T19:24:32.661Z,96.43
2023-01-08T19:26:59.544Z,96.85
2023-01-08T19:29:26.502Z,97.41
2023-01-08T19:31:53.410Z,97.09
2023-01-08T19:34:20.406Z,96.59
2023-01-08T19:36:47.566Z,96.72
2023-01-08T19:39:14.514Z,95.85
2023-01-08T19:41:59.901Z,96.18
2023-01-08T19:44:26.822Z,95.41
2023-01-08T19:46:53.714Z,95.80
2023-01-08T19:49:20.643Z,96.28
2023-01-08T19:51:47.573Z,95.95
2023-01-08T19:54:14.965Z,95.53
2023-01-08T19:56:41.911Z,95.12
2023-01-08T19:59:11.276Z,95.35
2023-01-08T20:01:40.512Z,95.17
2023-01-08T20:04:08.283Z,95.79
2023-01-08T20:06:35.255Z,95.66
2023-01-08T20:09:02.838Z,95.82
2023-01-08T20:11:30.219Z,94.81
2023-01-08T20:14:01.057Z,95.44
2023-01-08T20:16:30.928Z,95.57
2023-01-08T20:19:02.547Z,94.30
2023-01-08T20:21:30.293Z,94.52
2023-01-08T20:24:00.579Z,94.63
2023-01-08T20:26:30.104Z,95.32
2023-01-08T20:28:58.421Z,96.44
2023-01-08T20:31:29.838Z,97.20
2023-01-08T20:33:58.404Z,96.89
2023-01-08T20:36:28.474Z,96.71
2023-01-08T20:38:57.897Z,96.74
2023-01-08T20:41:26.710Z,97.05
2023-01-08T20:43:57.628Z,97.58
2023-01-08T20:46:30.511Z,97.17
2023-01-08T20:49:03.906Z,96.97
2023-01-08T20:51:36.473Z,96.17
2023-01-08T20:54:05.686Z,95.55
2023-01-08T20:56:32.831Z,95.61
2023-01-08T20:59:01.260Z,95.13
2023-01-08T21:01:31.639Z,95.04
2023-01-08T21:03:59.095Z,94.94
2023-01-08T21:06:28.771Z,94.80
2023-01-08T21:09:00.901Z,94.50
2023-01-08T21:11:30.501Z,94.96
2023-01-08T21:13:57.406Z,94.09
2023-01-08T21:16:28.623Z,94.97
2023-01-08T21:18:56.324Z,94.96
2023-01-08T21:21:29.031Z,95.70
2023-01-08T21:23:57.499Z,95.87
2023-01-08T21:26:24.669Z,96.84
2023-01-08T21:28:52.328Z,95.87
2023-01-08T21:31:22.567Z,96.15
2023-01-08T21:33:49.942Z,96.06
2023-01-08T21:36:22.846Z,96.46
2023-01-08T21:38:50.561Z,95.74
2023-01-08T21:41:46.540Z,95.53
2023-01-08T21:44:37.905Z,94.35
2023-01-08T21:47:07.693Z,94.72
2023-01-08T21:49:36.262Z,95.09
2023-01-08T21:52:22.709Z,94.79
2023-01-08T21:54:49.834Z,95.85
2023-01-08T21:57:17.042Z,94.87
2023-01-08T21:59:45.018Z,95.51
2023-01-08T22:02:16.231Z,94.69
2023-01-08T22:04:44.537Z,94.17
2023-01-08T22:07:12.462Z,93.35
2023-01-08T22:09:40.601Z,94.01
2023-01-08T22:12:08.144Z,94.55
2023-01-08T22:14:35.625Z,93.94
2023-01-08T22:17:04.344Z,94.63
2023-01-08T22:19:31.581Z,93.98
2023-01-08T22:21:58.500Z,93.20
2023-01-08T22:24:25.387Z,94.02
2023-01-08T22:26:52.313Z,94.01
2023-01-08T22:29:19.234Z,92.80
2023-01-08T22:31:46.309Z,93.19
2023-01-08T22:34:17.393Z,93.43
2023-01-08T22:36:52.129Z,93.18
2023-01-08T22:39:19.618Z,93.97
2023-01-08T22:41:46.492Z,94.15
2023-01-08T22:44:13.843Z,94.39
2023-01-08T22:46:41.441Z,95.08
2023-01-08T22:49:11.375Z,94.62
2023-01-08T22:51:38.860Z,95.04
2023-01-08T22:54:06.537Z,94.90
2023-01-08T22:56:33.468Z,94.05
2023-01-08T22:59:00.419Z,93.95
2023-01-08T23:01:28.000Z,94.14
2023-01-08T23:03:58.267Z,94.21
2023-01-08T23:06:27.894Z,94.45
2023-01-08T23:08:56.001Z,94.04
2023-01-08T23:11:23.747Z,94.07
2023-01-08T23:13:51.428Z,93.64
2023-01-08T23:16:24.185Z,94.50
2023-01-08T23:18:51.968Z,94.55
2023-01-08T23:21:21.231Z,94.05
2023-01-08T23:23:48.808Z,93.94
2023-01-08T23:26:27.243Z,94.43
2023-01-08T23:28:55.274Z,94.29
2023-01-08T23:31:24.775Z,94.22
2023-01-08T23:33:52.697Z,93.61
2023-01-08T23:36:21.417Z,94.30
2023-01-08T23:38:50.734Z,94.67
2023-01-08T23:41:18.822Z,94.81
2023-01-08T23:43:46.268Z,94.87
2023-01-08T23:46:13.931Z,94.95
2023-01-08T23:48:41.512Z,95.93
2023-01-08T23:51:08.741Z,95.87
2023-01-08T23:53:35.687Z,96.16
2023-01-08T23:56:02.639Z,95.96
2023-01-08T23:58:29.989Z,97.08
